createdAt,value
2019-01-25T00:01:49.198Z,103.35
2019-01-25T00:04:19.171Z,103.50
2019-01-25T00:06:48.849Z,93.35
2019-01-25T00:09:18.541Z,93.25
2019-01-25T00:11:48.870Z,94.07
2019-01-25T00:14:18.533Z,110.48
2019-01-25T00:16:48.242Z,105.45
2019-01-25T00:19:17.909Z,107.65
2019-01-25T00:21:48.037Z,118.22
2019-01-25T00:24:17.669Z,94.90
2019-01-25T00:26:47.482Z,98.50
2019-01-25T00:29:17.597Z,97.08
2019-01-25T00:31:47.231Z,102.58
2019-01-25T00:34:16.871Z,97.50
2019-01-25T00:36:46.545Z,103.38
2019-01-25T00:39:16.085Z,106.25
2019-01-25T00:41:45.640Z,90.17
2019-01-25T00:44:15.185Z,92.35
2019-01-25T00:46:44.710Z,113.68
2019-01-25T00:49:14.289Z,111.57
2019-01-25T00:51:43.826Z,108.72
2019-01-25T00:54:13.378Z,109.20
2019-01-25T00:56:42.941Z,117.45
2019-01-25T00:59:12.508Z,109.60
2019-01-25T01:01:42.088Z,106.32
2019-01-25T01:04:11.686Z,98.87
2019-01-25T01:06:41.567Z,104.63
2019-01-25T01:09:11.846Z,94.22
2019-01-25T01:11:41.429Z,103.22
2019-01-25T01:14:10.985Z,110.00
2019-01-25T01:16:40.570Z,112.00
2019-01-25T01:19:10.170Z,98.97
2019-01-25T01:21:39.790Z,104.25
2019-01-25T01:24:09.306Z,109.97
2019-01-25T01:26:38.857Z,112.70
2019-01-25T01:29:08.416Z,103.38
2019-01-25T01:31:37.947Z,103.38
2019-01-25T01:34:07.522Z,94.28
2019-01-25T01:36:37.125Z,111.03
2019-01-25T01:39:07.710Z,101.85
2019-01-25T01:41:37.261Z,113.00
2019-01-25T01:44:06.798Z,99.20
2019-01-25T01:46:36.355Z,100.80
2019-01-25T01:49:06.098Z,114.90
2019-01-25T01:51:35.648Z,105.12
2019-01-25T01:54:05.502Z,106.00
2019-01-25T01:56:35.132Z,124.65
2019-01-25T01:59:04.645Z,101.35
2019-01-25T02:01:34.337Z,100.60
2019-01-25T02:04:04.083Z,110.00
2019-01-25T02:06:33.634Z,101.05
2019-01-25T02:09:04.778Z,106.45
2019-01-25T02:11:34.864Z,99.15
2019-01-25T02:14:04.825Z,109.35
2019-01-25T02:16:34.829Z,106.55
2019-01-25T02:19:04.897Z,101.50
2019-01-25T02:21:34.902Z,102.55
2019-01-25T02:24:04.560Z,106.37
2019-01-25T02:26:34.141Z,107.52
2019-01-25T02:29:03.663Z,115.55
2019-01-25T02:31:33.257Z,112.28
2019-01-25T02:34:02.806Z,93.30
2019-01-25T02:36:32.317Z,93.25
2019-01-25T02:39:01.847Z,114.20
2019-01-25T02:41:31.394Z,101.33
2019-01-25T02:44:01.014Z,109.60
2019-01-25T02:46:30.550Z,109.72
2019-01-25T02:49:00.533Z,93.00
2019-01-25T02:51:30.477Z,94.72
2019-01-25T02:54:10.027Z,105.78
2019-01-25T02:56:39.550Z,91.50
2019-01-25T02:59:09.116Z,97.65
2019-01-25T03:01:38.678Z,104.25
2019-01-25T03:04:08.233Z,116.45
2019-01-25T03:06:37.744Z,112.95
2019-01-25T03:09:10.476Z,104.78
2019-01-25T03:11:40.179Z,113.97
2019-01-25T03:14:09.723Z,117.28
2019-01-25T03:16:39.702Z,114.82
2019-01-25T03:19:09.285Z,106.37
2019-01-25T03:21:39.177Z,112.00
2019-01-25T03:24:08.933Z,93.22
2019-01-25T03:26:38.461Z,110.68
2019-01-25T03:29:07.979Z,103.47
2019-01-25T03:31:37.939Z,104.78
2019-01-25T03:34:07.731Z,103.50
2019-01-25T03:36:37.372Z,107.15
2019-01-25T03:39:09.895Z,105.63
2019-01-25T03:41:39.781Z,110.05
2019-01-25T03:44:09.580Z,109.35
2019-01-25T03:46:39.264Z,113.10
2019-01-25T03:49:08.892Z,108.80
2019-01-25T03:51:38.444Z,124.12
2019-01-25T03:54:08.097Z,111.00
2019-01-25T03:56:37.638Z,110.50
2019-01-25T03:59:07.646Z,112.97
2019-01-25T04:01:37.237Z,109.78
2019-01-25T04:04:06.990Z,111.70
2019-01-25T04:06:36.546Z,118.17
2019-01-25T04:09:09.723Z,120.57
2019-01-25T04:11:39.308Z,112.17
2019-01-25T04:14:08.847Z,113.52
2019-01-25T04:16:38.421Z,117.53
2019-01-25T04:19:08.004Z,104.95
2019-01-25T04:21:37.621Z,114.60
2019-01-25T04:24:07.311Z,113.45
2019-01-25T04:26:36.877Z,105.30
2019-01-25T04:29:06.448Z,108.47
2019-01-25T04:31:35.964Z,109.90
2019-01-25T04:34:05.688Z,112.40
2019-01-25T04:36:35.585Z,118.08
2019-01-25T04:39:08.432Z,110.28
2019-01-25T04:41:37.962Z,120.37
2019-01-25T04:44:07.641Z,119.02
2019-01-25T04:46:37.279Z,116.90
2019-01-25T04:49:06.850Z,114.50
2019-01-25T04:51:36.347Z,112.92
2019-01-25T04:54:06.152Z,117.50
2019-01-25T04:56:38.891Z,120.70
2019-01-25T04:59:08.419Z,106.25
2019-01-25T05:01:37.969Z,117.42
2019-01-25T05:04:07.647Z,129.15
2019-01-25T05:06:37.212Z,123.13
2019-01-25T05:09:09.703Z,123.00
2019-01-25T05:11:39.262Z,126.30
2019-01-25T05:14:08.751Z,106.97
2019-01-25T05:16:38.476Z,133.15
2019-01-25T05:19:09.215Z,117.95
2019-01-25T05:21:39.151Z,116.97
2019-01-25T05:24:12.967Z,117.65
2019-01-25T05:26:42.465Z,110.03
2019-01-25T05:29:12.035Z,113.22
2019-01-25T05:31:41.570Z,112.85
2019-01-25T05:34:11.631Z,121.97
2019-01-25T05:36:41.146Z,130.12
2019-01-25T05:39:11.070Z,120.95
2019-01-25T05:41:40.622Z,112.62
2019-01-25T05:44:10.303Z,109.85
2019-01-25T05:46:39.898Z,121.20
2019-01-25T05:49:10.174Z,112.03
2019-01-25T05:51:39.696Z,121.22
2019-01-25T05:54:09.276Z,107.83
2019-01-25T05:56:43.849Z,129.95
2019-01-25T05:59:13.333Z,121.90
2019-01-25T06:01:46.228Z,103.60
2019-01-25T06:04:16.134Z,111.28
2019-01-25T06:06:45.815Z,111.88
2019-01-25T06:09:21.373Z,129.75
2019-01-25T06:11:50.913Z,123.85
2019-01-25T06:14:20.501Z,111.97
2019-01-25T06:16:50.013Z,118.85
2019-01-25T06:19:19.622Z,111.08
2019-01-25T06:21:49.145Z,119.25
2019-01-25T06:24:18.659Z,105.45
2019-01-25T06:26:48.303Z,121.60
2019-01-25T06:29:18.265Z,124.30
2019-01-25T06:31:47.780Z,135.93
2019-01-25T06:34:17.263Z,103.50
2019-01-25T06:36:46.787Z,120.22
2019-01-25T06:39:16.302Z,124.65
2019-01-25T06:41:45.843Z,114.50
2019-01-25T06:44:15.355Z,126.40
2019-01-25T06:46:45.294Z,121.85
2019-01-25T06:49:14.817Z,131.30
2019-01-25T06:51:44.697Z,123.70
2019-01-25T06:54:14.351Z,112.77
2019-01-25T06:56:43.888Z,124.55
2019-01-25T06:59:25.560Z,124.55
2019-01-25T07:02:20.584Z,122.98
2019-01-25T07:04:50.123Z,122.50
2019-01-25T07:07:26.925Z,111.88
2019-01-25T07:09:56.463Z,124.12
2019-01-25T07:12:25.956Z,110.12
2019-01-25T07:14:56.009Z,114.52
2019-01-25T07:17:25.553Z,117.93
2019-01-25T07:19:55.092Z,112.32
2019-01-25T07:22:24.668Z,119.42
2019-01-25T07:24:57.260Z,107.30
2019-01-25T07:27:25.371Z,119.02
2019-01-25T07:29:55.061Z,123.97
2019-01-25T07:32:24.754Z,114.82
2019-01-25T07:34:54.482Z,117.45
2019-01-25T07:37:24.028Z,122.75
2019-01-25T07:39:53.582Z,125.40
2019-01-25T07:42:23.121Z,106.47
2019-01-25T07:44:52.619Z,114.32
2019-01-25T07:47:22.172Z,117.53
2019-01-25T07:49:51.729Z,105.80
2019-01-25T07:52:21.221Z,119.20
2019-01-25T07:54:50.809Z,116.88
2019-01-25T07:57:20.378Z,98.07
2019-01-25T07:59:50.283Z,91.75
2019-01-25T08:02:19.808Z,109.27
2019-01-25T08:04:49.789Z,108.83
2019-01-25T08:07:19.307Z,113.62
2019-01-25T08:09:48.858Z,103.70
2019-01-25T08:12:18.449Z,78.83
2019-01-25T08:14:48.048Z,85.47
2019-01-25T08:17:17.584Z,76.97
2019-01-25T08:19:47.058Z,90.97
2019-01-25T08:22:16.680Z,94.03
2019-01-25T08:24:46.196Z,83.33
2019-01-25T08:27:15.688Z,73.55
2019-01-25T08:29:45.252Z,85.87
2019-01-25T08:32:15.146Z,85.72
2019-01-25T08:34:44.798Z,79.67
2019-01-25T08:37:14.320Z,82.95
2019-01-25T08:39:44.287Z,64.00
2019-01-25T08:42:15.558Z,69.10
2019-01-25T08:44:45.487Z,76.62
2019-01-25T08:47:15.168Z,72.80
2019-01-25T08:49:44.689Z,83.80
2019-01-25T08:52:14.220Z,67.70
2019-01-25T08:54:43.779Z,80.25
2019-01-25T08:57:13.411Z,77.40
2019-01-25T08:59:45.622Z,75.52
2019-01-25T09:02:14.077Z,87.02
2019-01-25T09:04:43.623Z,87.33
2019-01-25T09:07:13.161Z,85.00
2019-01-25T09:09:43.064Z,86.10
2019-01-25T09:12:12.646Z,71.50
2019-01-25T09:14:42.220Z,72.47
2019-01-25T09:17:12.002Z,64.22
2019-01-25T09:19:41.539Z,74.05
2019-01-25T09:22:11.056Z,64.30
2019-01-25T09:24:40.652Z,70.80
2019-01-25T09:27:10.552Z,71.53
2019-01-25T09:29:40.089Z,61.15
2019-01-25T09:32:09.597Z,60.70
2019-01-25T09:34:39.160Z,73.05
2019-01-25T09:37:08.677Z,59.23
2019-01-25T09:39:38.603Z,58.40
2019-01-25T09:42:08.130Z,60.43
2019-01-25T09:44:38.107Z,64.40
2019-01-25T09:47:07.648Z,60.08
2019-01-25T09:49:37.158Z,62.15
2019-01-25T09:52:06.836Z,67.20
2019-01-25T09:54:36.401Z,68.28
2019-01-25T09:57:06.596Z,58.70
2019-01-25T09:59:36.149Z,70.45
2019-01-25T10:02:05.913Z,71.60
2019-01-25T10:04:35.424Z,63.70
2019-01-25T10:07:05.076Z,67.70
2019-01-25T10:09:34.668Z,65.08
2019-01-25T10:12:04.245Z,58.02
2019-01-25T10:14:33.766Z,60.25
2019-01-25T10:17:03.629Z,67.75
2019-01-25T10:19:33.421Z,67.27
2019-01-25T10:22:02.950Z,55.20
2019-01-25T10:24:32.438Z,69.97
2019-01-25T10:27:01.975Z,64.82
2019-01-25T10:29:31.498Z,64.20
2019-01-25T10:32:01.209Z,61.63
2019-01-25T10:34:30.740Z,58.13
2019-01-25T10:37:00.342Z,68.85
2019-01-25T10:39:29.821Z,80.83
2019-01-25T10:42:00.001Z,65.90
2019-01-25T10:44:29.512Z,75.10
2019-01-25T10:46:59.056Z,66.02
2019-01-25T10:49:28.971Z,57.78
2019-01-25T10:51:58.506Z,57.50
2019-01-25T10:54:28.314Z,62.03
2019-01-25T10:56:57.979Z,66.37
2019-01-25T10:59:27.527Z,58.02
2019-01-25T11:01:57.043Z,62.53
2019-01-25T11:04:28.068Z,65.03
2019-01-25T11:06:57.576Z,61.28
2019-01-25T11:09:27.125Z,63.43
2019-01-25T11:11:57.013Z,60.50
2019-01-25T11:14:26.960Z,68.30
2019-01-25T11:16:56.512Z,67.83
2019-01-25T11:19:26.028Z,57.43
2019-01-25T11:21:55.592Z,60.17
2019-01-25T11:24:25.131Z,64.03
2019-01-25T11:26:54.637Z,62.03
2019-01-25T11:29:24.140Z,65.17
2019-01-25T11:31:53.685Z,71.57
2019-01-25T11:34:23.217Z,79.97
2019-01-25T11:36:52.740Z,71.40
2019-01-25T11:39:22.320Z,67.93
2019-01-25T11:41:51.864Z,74.40
2019-01-25T11:44:21.744Z,69.73
2019-01-25T11:46:51.295Z,66.57
2019-01-25T11:49:20.860Z,69.57
2019-01-25T11:51:50.424Z,78.10
2019-01-25T11:54:19.937Z,66.37
2019-01-25T11:56:49.477Z,77.70
2019-01-25T11:59:19.718Z,64.97
2019-01-25T12:01:49.172Z,76.10
2019-01-25T12:04:18.737Z,73.87
2019-01-25T12:06:48.614Z,76.97
2019-01-25T12:09:18.112Z,73.40
2019-01-25T12:11:47.659Z,90.37
2019-01-25T12:14:17.189Z,82.10
2019-01-25T12:16:47.176Z,87.03
2019-01-25T12:19:16.695Z,78.80
2019-01-25T12:21:46.303Z,76.47
2019-01-25T12:24:15.832Z,77.70
2019-01-25T12:26:45.366Z,73.53
2019-01-25T12:29:14.952Z,113.60
2019-01-25T12:31:44.444Z,91.37
2019-01-25T12:34:14.026Z,96.63
2019-01-25T12:36:43.659Z,102.07
2019-01-25T12:39:13.156Z,121.67
2019-01-25T12:41:42.960Z,109.83
2019-01-25T12:44:12.487Z,95.97
2019-01-25T12:46:42.015Z,109.23
2019-01-25T12:49:11.556Z,112.60
2019-01-25T12:51:51.559Z,110.57
2019-01-25T12:54:21.119Z,115.43
2019-01-25T12:56:50.613Z,128.80
2019-01-25T12:59:20.490Z,129.73
2019-01-25T13:01:51.426Z,107.50
2019-01-25T13:04:21.375Z,122.07
2019-01-25T13:06:50.895Z,112.53
2019-01-25T13:09:21.819Z,135.73
2019-01-25T13:11:51.679Z,132.57
2019-01-25T13:14:21.414Z,141.13
2019-01-25T13:16:51.234Z,137.20
2019-01-25T13:19:21.166Z,162.30
2019-01-25T13:21:50.680Z,131.93
2019-01-25T13:24:20.228Z,151.80
2019-01-25T13:26:49.773Z,144.47
2019-01-25T13:29:25.898Z,153.07
2019-01-25T13:31:50.483Z,174.23
2019-01-25T13:34:20.119Z,183.27
2019-01-25T13:36:56.799Z,162.80
2019-01-25T13:39:20.837Z,164.07
2019-01-25T13:41:50.374Z,175.93
2019-01-25T13:44:19.895Z,163.80
2019-01-25T13:46:49.878Z,176.17
2019-01-25T13:49:20.257Z,187.77
2019-01-25T13:51:49.797Z,161.07
2019-01-25T13:54:19.341Z,167.30
2019-01-25T13:56:49.392Z,151.37
2019-01-25T13:59:18.900Z,149.30
2019-01-25T14:01:48.414Z,161.47
2019-01-25T14:04:17.941Z,157.63
2019-01-25T14:06:47.535Z,151.77
2019-01-25T14:09:17.100Z,145.63
2019-01-25T14:11:46.609Z,144.17
2019-01-25T14:14:16.474Z,124.70
2019-01-25T14:16:46.295Z,150.47
2019-01-25T14:19:15.828Z,148.47
2019-01-25T14:21:45.363Z,131.60
2019-01-25T14:24:16.814Z,149.00
2019-01-25T14:26:46.540Z,148.30
2019-01-25T14:29:16.108Z,147.33
2019-01-25T14:31:45.680Z,140.83
2019-01-25T14:34:15.239Z,125.40
2019-01-25T14:36:44.785Z,133.30
2019-01-25T14:39:14.318Z,128.63
2019-01-25T14:41:43.799Z,129.87
2019-01-25T14:44:13.729Z,133.13
2019-01-25T14:46:43.228Z,112.73
2019-01-25T14:49:13.104Z,122.07
2019-01-25T14:51:42.631Z,120.93
2019-01-25T14:54:12.145Z,115.90
2019-01-25T14:56:41.688Z,115.67
2019-01-25T14:59:11.305Z,104.47
2019-01-25T15:01:40.844Z,83.00
2019-01-25T15:04:10.397Z,87.73
2019-01-25T15:06:39.893Z,76.20
2019-01-25T15:09:10.651Z,81.70
2019-01-25T15:11:40.204Z,74.70
2019-01-25T15:14:09.874Z,67.27
2019-01-25T15:16:41.041Z,65.30
2019-01-25T15:19:10.923Z,76.20
2019-01-25T15:21:40.459Z,64.80
2019-01-25T15:24:09.943Z,74.30
2019-01-25T15:26:39.490Z,64.53
2019-01-25T15:29:09.271Z,62.93
2019-01-25T15:31:38.776Z,63.80
2019-01-25T15:34:08.488Z,78.80
2019-01-25T15:36:38.089Z,69.37
2019-01-25T15:39:10.107Z,63.93
2019-01-25T15:41:39.743Z,68.60
2019-01-25T15:44:10.194Z,72.20
2019-01-25T15:46:39.869Z,77.93
2019-01-25T15:49:09.411Z,74.53
2019-01-25T15:51:38.959Z,73.37
2019-01-25T15:54:08.507Z,68.27
2019-01-25T15:56:38.043Z,73.30
2019-01-25T15:59:07.565Z,77.93
2019-01-25T16:01:37.091Z,84.40
2019-01-25T16:04:06.629Z,80.90
2019-01-25T16:06:36.144Z,79.80
2019-01-25T16:09:08.623Z,83.80
2019-01-25T16:11:38.481Z,82.93
2019-01-25T16:14:08.043Z,82.73
2019-01-25T16:16:37.605Z,80.67
2019-01-25T16:19:07.115Z,87.23
2019-01-25T16:21:36.636Z,84.53
2019-01-25T16:24:06.433Z,78.63
2019-01-25T16:26:36.101Z,87.33
2019-01-25T16:29:05.792Z,87.20
2019-01-25T16:31:35.760Z,87.10
2019-01-25T16:34:05.496Z,84.60
2019-01-25T16:36:35.027Z,97.87
2019-01-25T16:39:07.606Z,72.77
2019-01-25T16:41:37.562Z,98.50
2019-01-25T16:44:08.374Z,107.43
2019-01-25T16:46:37.877Z,83.77
2019-01-25T16:49:07.410Z,98.57
2019-01-25T16:51:36.972Z,102.97
2019-01-25T16:54:06.589Z,91.63
2019-01-25T16:56:36.205Z,98.13
2019-01-25T16:59:06.457Z,82.17
2019-01-25T17:01:36.013Z,93.10
2019-01-25T17:04:05.680Z,85.97
2019-01-25T17:06:35.200Z,87.70
2019-01-25T17:09:07.074Z,91.63
2019-01-25T17:11:36.624Z,73.27
2019-01-25T17:14:06.259Z,86.37
2019-01-25T17:16:35.758Z,89.67
2019-01-25T17:19:05.584Z,94.40
2019-01-25T17:21:35.143Z,87.07
2019-01-25T17:24:04.731Z,92.67
2019-01-25T17:26:34.273Z,78.60
2019-01-25T17:29:04.387Z,77.40
2019-01-25T17:31:34.100Z,79.97
2019-01-25T17:34:04.399Z,84.77
2019-01-25T17:36:33.948Z,82.53
2019-01-25T17:39:04.248Z,81.37
2019-01-25T17:41:33.932Z,86.20
2019-01-25T17:44:03.485Z,78.43
2019-01-25T17:46:33.022Z,70.17
2019-01-25T17:49:02.562Z,84.23
2019-01-25T17:51:32.084Z,71.30
2019-01-25T17:54:01.607Z,62.63
2019-01-25T17:56:31.858Z,69.00
2019-01-25T17:59:01.432Z,64.50
2019-01-25T18:01:31.081Z,65.70
2019-01-25T18:04:00.622Z,64.73
2019-01-25T18:06:30.301Z,58.47
2019-01-25T18:08:59.828Z,59.83
2019-01-25T18:11:29.356Z,61.40
2019-01-25T18:13:58.887Z,60.50
2019-01-25T18:16:28.645Z,56.80
2019-01-25T18:18:58.161Z,55.37
2019-01-25T18:21:28.040Z,52.27
2019-01-25T18:23:57.557Z,52.33
2019-01-25T18:26:27.340Z,51.13
2019-01-25T18:29:09.633Z,53.50
2019-01-25T18:31:39.210Z,53.80
2019-01-25T18:34:08.725Z,52.87
2019-01-25T18:36:38.773Z,53.90
2019-01-25T18:39:09.856Z,56.57
2019-01-25T18:41:39.458Z,55.93
2019-01-25T18:44:09.632Z,58.27
2019-01-25T18:46:39.151Z,54.83
2019-01-25T18:49:08.763Z,67.23
2019-01-25T18:51:38.280Z,63.40
2019-01-25T18:54:07.826Z,60.00
2019-01-25T18:56:37.649Z,73.40
2019-01-25T18:59:07.681Z,71.77
2019-01-25T19:01:37.223Z,83.70
2019-01-25T19:04:07.068Z,82.37
2019-01-25T19:06:36.580Z,77.70
2019-01-25T19:09:08.862Z,83.93
2019-01-25T19:11:38.867Z,85.90
2019-01-25T19:14:08.443Z,86.70
2019-01-25T19:16:37.927Z,84.00
2019-01-25T19:19:07.613Z,94.00
2019-01-25T19:21:37.116Z,78.87
2019-01-25T19:24:07.013Z,80.93
2019-01-25T19:26:36.561Z,97.07
2019-01-25T19:29:06.086Z,82.50
2019-01-25T19:31:35.976Z,88.53
2019-01-25T19:34:05.990Z,84.30
2019-01-25T19:36:35.493Z,84.33
2019-01-25T19:39:09.321Z,92.60
2019-01-25T19:41:38.861Z,99.17
2019-01-25T19:44:08.772Z,84.37
2019-01-25T19:46:39.130Z,92.93
2019-01-25T19:49:09.115Z,91.97
2019-01-25T19:51:38.977Z,90.73
2019-01-25T19:54:08.530Z,91.50
2019-01-25T19:56:38.133Z,74.43
2019-01-25T19:59:08.329Z,77.63
2019-01-25T20:01:37.876Z,82.73
2019-01-25T20:04:07.569Z,92.90
2019-01-25T20:06:37.120Z,90.70
2019-01-25T20:09:10.246Z,91.90
2019-01-25T20:11:40.501Z,77.87
2019-01-25T20:14:10.012Z,95.50
2019-01-25T20:16:39.555Z,82.50
2019-01-25T20:19:09.038Z,83.83
2019-01-25T20:21:38.601Z,83.17
2019-01-25T20:24:08.133Z,85.23
2019-01-25T20:26:37.723Z,77.33
2019-01-25T20:29:07.234Z,80.40
2019-01-25T20:31:36.764Z,77.60
2019-01-25T20:34:06.312Z,81.33
2019-01-25T20:36:35.839Z,71.80
2019-01-25T20:39:08.530Z,68.33
2019-01-25T20:41:38.064Z,62.90
2019-01-25T20:44:07.664Z,66.30
2019-01-25T20:46:37.183Z,69.30
2019-01-25T20:49:06.726Z,67.47
2019-01-25T20:51:36.544Z,60.73
2019-01-25T20:54:06.205Z,72.00
2019-01-25T20:56:36.036Z,58.17
2019-01-25T20:59:05.535Z,65.13
2019-01-25T21:01:35.161Z,57.67
2019-01-25T21:04:05.292Z,53.93
2019-01-25T21:06:34.786Z,55.97
2019-01-25T21:09:05.847Z,59.60
2019-01-25T21:11:35.388Z,53.97
2019-01-25T21:14:05.164Z,49.00
2019-01-25T21:16:34.740Z,46.50
2019-01-25T21:19:04.361Z,51.80
2019-01-25T21:21:33.891Z,46.70
2019-01-25T21:24:03.406Z,45.97
2019-01-25T21:26:32.932Z,45.40
2019-01-25T21:29:02.443Z,43.77
2019-01-25T21:31:32.034Z,43.73
2019-01-25T21:34:01.572Z,40.10
2019-01-25T21:36:31.111Z,50.27
2019-01-25T21:39:00.629Z,41.50
2019-01-25T21:41:30.172Z,40.50
2019-01-25T21:43:59.701Z,46.20
2019-01-25T21:46:29.582Z,45.60
2019-01-25T21:48:59.795Z,46.07
2019-01-25T21:51:29.597Z,46.70
2019-01-25T21:53:59.323Z,43.40
2019-01-25T21:56:29.203Z,47.33
2019-01-25T21:58:59.276Z,51.57
2019-01-25T22:01:28.813Z,57.70
2019-01-25T22:03:58.745Z,63.10
2019-01-25T22:06:28.298Z,66.33
2019-01-25T22:08:58.364Z,62.73
2019-01-25T22:11:27.907Z,64.10
2019-01-25T22:13:57.414Z,65.27
2019-01-25T22:16:27.071Z,57.93
2019-01-25T22:18:56.911Z,63.03
2019-01-25T22:21:26.477Z,64.80
2019-01-25T22:23:56.476Z,62.17
2019-01-25T22:26:26.129Z,58.30
2019-01-25T22:28:55.993Z,70.83
2019-01-25T22:31:25.490Z,70.10
2019-01-25T22:33:54.996Z,68.37
2019-01-25T22:36:24.548Z,62.67
2019-01-25T22:38:54.081Z,61.27
2019-01-25T22:41:24.031Z,65.10
2019-01-25T22:43:53.551Z,63.67
2019-01-25T22:46:23.058Z,70.17
2019-01-25T22:48:52.652Z,62.73
2019-01-25T22:51:22.613Z,66.53
2019-01-25T22:53:52.184Z,64.57
2019-01-25T22:56:21.717Z,68.93
2019-01-25T22:58:51.677Z,69.40
2019-01-25T23:01:28.112Z,67.47
2019-01-25T23:04:59.888Z,73.53
2019-01-25T23:07:31.528Z,67.47
2019-01-25T23:10:14.455Z,63.60
2019-01-25T23:12:44.332Z,72.27
2019-01-25T23:15:18.085Z,65.87
2019-01-25T23:17:47.699Z,81.77
2019-01-25T23:20:17.229Z,67.60
2019-01-25T23:22:46.768Z,73.50
2019-01-25T23:25:16.387Z,74.93
2019-01-25T23:27:45.960Z,66.93
2019-01-25T23:30:19.042Z,71.57
2019-01-25T23:32:48.578Z,74.23
2019-01-25T23:35:18.208Z,80.70
2019-01-25T23:37:48.270Z,73.23
2019-01-25T23:40:17.896Z,68.20
2019-01-25T23:42:47.410Z,76.60
2019-01-25T23:45:16.997Z,63.80
2019-01-25T23:47:46.522Z,81.67
2019-01-25T23:50:16.421Z,72.23
2019-01-25T23:52:45.914Z,85.60
2019-01-25T23:55:15.642Z,87.27
2019-01-25T23:57:45.188Z,74.90
